createdAt,value
2023-03-02T00:02:15.991Z,5.93
2023-03-02T00:04:51.213Z,6.03
2023-03-02T00:07:28.418Z,5.57
2023-03-02T00:09:55.526Z,6.03
2023-03-02T00:12:22.276Z,6.35
2023-03-02T00:14:48.953Z,6.32
2023-03-02T00:17:15.687Z,6.30
2023-03-02T00:19:42.413Z,6.63
2023-03-02T00:22:10.999Z,6.00
2023-03-02T00:24:37.811Z,6.72
2023-03-02T00:27:04.525Z,6.60
2023-03-02T00:29:31.182Z,6.32
2023-03-02T00:31:57.879Z,6.28
2023-03-02T00:34:24.602Z,6.28
2023-03-02T00:36:51.309Z,6.32
2023-03-02T00:39:19.959Z,6.15
2023-03-02T00:41:47.396Z,6.60
2023-03-02T00:44:17.436Z,6.38
2023-03-02T00:46:45.067Z,6.85
2023-03-02T00:49:12.768Z,6.95
2023-03-02T00:51:39.587Z,6.50
2023-03-02T00:54:06.675Z,6.65
2023-03-02T00:56:34.164Z,6.72
2023-03-02T00:59:07.290Z,6.57
2023-03-02T01:01:34.562Z,6.05
2023-03-02T01:04:01.324Z,6.63
2023-03-02T01:06:28.103Z,6.50
2023-03-02T01:08:54.900Z,6.78
2023-03-02T01:11:23.191Z,6.45
2023-03-02T01:13:51.356Z,6.70
2023-03-02T01:16:18.425Z,6.53
2023-03-02T01:18:45.331Z,6.75
2023-03-02T01:21:14.595Z,6.57
2023-03-02T01:23:41.296Z,6.07
2023-03-02T01:26:08.145Z,7.07
2023-03-02T01:28:34.905Z,6.40
2023-03-02T01:31:03.145Z,6.63
2023-03-02T01:33:30.387Z,6.43
2023-03-02T01:35:57.116Z,6.35
2023-03-02T01:38:23.894Z,6.13
2023-03-02T01:40:50.664Z,6.65
2023-03-02T01:43:17.437Z,6.38
2023-03-02T01:45:47.384Z,6.22
2023-03-02T01:48:23.828Z,6.90
2023-03-02T01:50:51.963Z,6.80
2023-03-02T01:53:22.592Z,6.22
2023-03-02T01:55:49.423Z,6.30
2023-03-02T01:58:17.308Z,6.22
2023-03-02T02:00:44.799Z,5.82
2023-03-02T02:03:20.936Z,6.55
2023-03-02T02:06:00.108Z,7.00
2023-03-02T02:08:27.962Z,6.78
2023-03-02T02:10:55.166Z,6.20
2023-03-02T02:13:21.980Z,6.28
2023-03-02T02:15:48.723Z,6.53
2023-03-02T02:18:15.440Z,6.40
2023-03-02T02:20:45.321Z,6.55
2023-03-02T02:23:39.695Z,6.93
2023-03-02T02:26:26.757Z,6.72
2023-03-02T02:29:02.233Z,6.32
2023-03-02T02:31:45.395Z,6.32
2023-03-02T02:34:24.232Z,6.95
2023-03-02T02:36:56.311Z,6.85
2023-03-02T02:39:34.315Z,6.82
2023-03-02T02:42:04.886Z,6.88
2023-03-02T02:44:32.272Z,6.30
2023-03-02T02:47:00.153Z,6.88
2023-03-02T02:49:39.150Z,6.57
2023-03-02T02:52:06.890Z,6.95
2023-03-02T02:54:36.264Z,6.68
2023-03-02T02:57:04.691Z,6.60
2023-03-02T02:59:43.515Z,6.97
2023-03-02T03:02:28.073Z,7.00
2023-03-02T03:05:02.877Z,6.65
2023-03-02T03:07:32.577Z,6.47
2023-03-02T03:10:15.196Z,6.75
2023-03-02T03:12:42.584Z,6.55
2023-03-02T03:15:10.122Z,7.05
2023-03-02T03:17:36.938Z,6.60
2023-03-02T03:20:08.950Z,7.03
2023-03-02T03:22:38.902Z,7.03
2023-03-02T03:25:07.866Z,6.80
2023-03-02T03:27:34.754Z,7.10
2023-03-02T03:30:03.376Z,6.60
2023-03-02T03:32:35.422Z,6.25
2023-03-02T03:35:03.537Z,6.70
2023-03-02T03:37:32.434Z,6.82
2023-03-02T03:39:59.747Z,6.65
2023-03-02T03:42:27.106Z,6.93
2023-03-02T03:44:55.244Z,6.80
2023-03-02T03:47:22.658Z,6.82
2023-03-02T03:49:50.933Z,6.60
2023-03-02T03:52:17.948Z,6.50
2023-03-02T03:54:44.679Z,6.65
2023-03-02T03:57:12.096Z,6.18
2023-03-02T03:59:39.202Z,6.82
2023-03-02T04:02:06.563Z,6.93
2023-03-02T04:04:39.971Z,6.60
2023-03-02T04:07:11.240Z,6.70
2023-03-02T04:09:39.203Z,7.05
2023-03-02T04:12:09.137Z,6.55
2023-03-02T04:14:37.190Z,6.22
2023-03-02T04:17:05.457Z,6.43
2023-03-02T04:19:35.447Z,6.60
2023-03-02T04:22:04.010Z,6.60
2023-03-02T04:24:31.930Z,6.57
2023-03-02T04:27:01.569Z,6.47
2023-03-02T04:29:28.901Z,7.22
2023-03-02T04:31:55.775Z,6.60
2023-03-02T04:34:27.361Z,6.50
2023-03-02T04:36:55.995Z,6.43
2023-03-02T04:39:23.557Z,6.47
2023-03-02T04:41:51.950Z,6.55
2023-03-02T04:44:20.282Z,6.97
2023-03-02T04:46:48.057Z,6.82
2023-03-02T04:49:15.720Z,6.43
2023-03-02T04:51:45.672Z,7.00
2023-03-02T04:54:19.642Z,6.97
2023-03-02T04:56:49.517Z,7.30
2023-03-02T04:59:17.975Z,7.03
2023-03-02T05:01:45.426Z,6.80
2023-03-02T05:04:12.324Z,7.13
2023-03-02T05:06:39.360Z,7.38
2023-03-02T05:09:06.662Z,6.63
2023-03-02T05:11:34.089Z,7.10
2023-03-02T05:14:03.626Z,6.80
2023-03-02T05:16:33.318Z,7.07
2023-03-02T05:19:01.923Z,7.18
2023-03-02T05:21:28.724Z,7.28
2023-03-02T05:23:55.449Z,7.00
2023-03-02T05:26:22.482Z,7.10
2023-03-02T05:28:49.343Z,7.35
2023-03-02T05:31:27.784Z,7.10
2023-03-02T05:33:54.680Z,6.20
2023-03-02T05:36:23.399Z,6.97
2023-03-02T05:38:50.194Z,7.07
2023-03-02T05:41:16.946Z,6.90
2023-03-02T05:43:43.935Z,6.35
2023-03-02T05:46:10.659Z,6.10
2023-03-02T05:48:37.722Z,6.93
2023-03-02T05:51:04.779Z,6.60
2023-03-02T05:53:31.418Z,6.35
2023-03-02T05:55:58.130Z,7.03
2023-03-02T05:58:24.790Z,6.30
2023-03-02T06:00:52.318Z,6.50
2023-03-02T06:03:19.064Z,6.72
2023-03-02T06:05:50.971Z,6.53
2023-03-02T06:08:19.026Z,6.82
2023-03-02T06:10:45.860Z,6.80
2023-03-02T06:13:12.592Z,6.50
2023-03-02T06:15:40.543Z,6.63
2023-03-02T06:18:07.376Z,6.82
2023-03-02T06:20:34.217Z,6.60
2023-03-02T06:23:01.120Z,6.90
2023-03-02T06:25:27.982Z,7.13
2023-03-02T06:27:54.801Z,6.78
2023-03-02T06:30:24.800Z,6.95
2023-03-02T06:32:51.995Z,6.75
2023-03-02T06:35:18.926Z,6.72
2023-03-02T06:37:45.840Z,6.68
2023-03-02T06:40:13.940Z,6.47
2023-03-02T06:42:42.075Z,7.03
2023-03-02T06:45:09.725Z,6.65
2023-03-02T06:47:36.497Z,6.60
2023-03-02T06:50:03.884Z,6.53
2023-03-02T06:52:30.849Z,6.50
2023-03-02T06:54:57.575Z,6.57
2023-03-02T06:57:24.389Z,6.75
2023-03-02T06:59:51.254Z,6.22
2023-03-02T07:02:18.058Z,7.60
2023-03-02T07:04:44.713Z,5.60
2023-03-02T07:07:11.419Z,3.80
2023-03-02T07:09:38.117Z,3.55
2023-03-02T07:12:04.916Z,3.40
2023-03-02T07:14:31.918Z,3.45
2023-03-02T07:17:00.042Z,4.10
2023-03-02T07:19:26.795Z,5.38
2023-03-02T07:21:53.475Z,13.50
2023-03-02T07:24:20.167Z,9.55
2023-03-02T07:26:46.964Z,8.40
2023-03-02T07:29:13.631Z,8.85
2023-03-02T07:31:40.417Z,7.75
2023-03-02T07:34:07.112Z,6.88
2023-03-02T07:36:33.753Z,5.55
2023-03-02T07:39:03.284Z,4.53
2023-03-02T07:41:30.110Z,4.78
2023-03-02T07:43:56.889Z,4.40
2023-03-02T07:46:23.581Z,3.55
2023-03-02T07:48:50.368Z,4.10
2023-03-02T07:51:17.028Z,3.67
2023-03-02T07:53:43.756Z,3.47
2023-03-02T07:56:11.693Z,3.60
2023-03-02T07:58:38.738Z,3.33
2023-03-02T08:01:05.614Z,3.30
2023-03-02T08:03:32.309Z,3.47
2023-03-02T08:05:58.977Z,2.95
2023-03-02T08:08:25.667Z,2.90
2023-03-02T08:10:52.317Z,2.92
2023-03-02T08:13:18.997Z,2.90
2023-03-02T08:15:45.672Z,3.08
2023-03-02T08:18:12.427Z,2.95
2023-03-02T08:20:39.178Z,2.63
2023-03-02T08:23:05.891Z,2.58
2023-03-02T08:25:32.624Z,3.25
2023-03-02T08:27:59.282Z,3.00
2023-03-02T08:30:25.989Z,4.22
2023-03-02T08:32:52.667Z,4.70
2023-03-02T08:35:19.402Z,4.45
2023-03-02T08:37:46.140Z,4.97
2023-03-02T08:40:13.101Z,5.22
2023-03-02T08:42:39.814Z,5.10
2023-03-02T08:45:07.157Z,5.20
2023-03-02T08:47:34.141Z,5.93
2023-03-02T08:50:01.041Z,5.38
2023-03-02T08:52:27.759Z,5.68
2023-03-02T08:54:54.522Z,6.40
2023-03-02T08:57:21.464Z,6.40
2023-03-02T08:59:48.174Z,6.47
2023-03-02T09:02:14.890Z,6.30
2023-03-02T09:04:41.849Z,6.35
2023-03-02T09:07:08.943Z,5.90
2023-03-02T09:09:35.889Z,6.88
2023-03-02T09:12:02.604Z,6.55
2023-03-02T09:14:29.300Z,6.40
2023-03-02T09:16:56.061Z,6.38
2023-03-02T09:19:22.778Z,6.10
2023-03-02T09:21:49.775Z,6.22
2023-03-02T09:24:16.475Z,6.28
2023-03-02T09:26:43.153Z,6.20
2023-03-02T09:29:10.168Z,6.97
2023-03-02T09:31:37.642Z,6.60
2023-03-02T09:34:05.354Z,6.57
2023-03-02T09:36:32.734Z,6.78
2023-03-02T09:38:59.547Z,6.95
2023-03-02T09:41:41.405Z,6.65
2023-03-02T09:44:33.840Z,6.90
2023-03-02T09:47:04.742Z,6.47
2023-03-02T09:50:03.710Z,6.32
2023-03-02T09:52:40.899Z,6.75
2023-03-02T09:55:20.309Z,6.88
2023-03-02T09:57:47.408Z,6.40
2023-03-02T10:00:28.098Z,6.13
2023-03-02T10:03:02.470Z,6.32
2023-03-02T10:05:41.135Z,6.32
2023-03-02T10:08:20.699Z,6.25
2023-03-02T10:11:00.028Z,7.15
2023-03-02T10:13:32.843Z,6.30
2023-03-02T10:16:20.473Z,5.95
2023-03-02T10:19:10.534Z,6.18
2023-03-02T10:21:47.313Z,6.80
2023-03-02T10:24:22.850Z,6.30
2023-03-02T10:27:01.438Z,5.93
2023-03-02T10:29:28.066Z,6.07
2023-03-02T10:32:03.853Z,5.90
2023-03-02T10:34:31.247Z,6.22
2023-03-02T10:36:58.462Z,6.00
2023-03-02T10:39:25.242Z,5.60
2023-03-02T10:42:04.496Z,5.75
2023-03-02T10:44:38.557Z,5.38
2023-03-02T10:47:07.503Z,6.03
2023-03-02T10:49:36.586Z,6.40
2023-03-02T10:52:15.296Z,6.55
2023-03-02T10:54:42.653Z,5.85
2023-03-02T10:57:30.813Z,6.10
2023-03-02T11:00:22.274Z,6.07
2023-03-02T11:02:51.429Z,5.45
2023-03-02T11:05:30.274Z,5.57
2023-03-02T11:08:00.095Z,5.68
2023-03-02T11:10:37.024Z,5.55
2023-03-02T11:13:26.506Z,5.65
2023-03-02T11:16:01.459Z,5.20
2023-03-02T11:18:30.934Z,5.45
2023-03-02T11:21:05.666Z,5.43
2023-03-02T11:23:49.455Z,5.45
2023-03-02T11:26:35.505Z,5.88
2023-03-02T11:29:10.298Z,5.28
2023-03-02T11:32:02.099Z,4.65
2023-03-02T11:34:39.207Z,5.40
2023-03-02T11:37:18.261Z,5.13
2023-03-02T11:39:55.222Z,5.45
2023-03-02T11:42:30.685Z,5.50
2023-03-02T11:45:01.568Z,4.93
2023-03-02T11:47:31.245Z,4.97
2023-03-02T11:50:05.282Z,5.80
2023-03-02T11:52:46.422Z,4.90
2023-03-02T11:55:13.072Z,4.75
2023-03-02T11:57:48.500Z,4.75
2023-03-02T12:00:26.908Z,4.75
2023-03-02T12:03:02.989Z,4.93
2023-03-02T12:05:35.544Z,4.80
2023-03-02T12:08:31.088Z,4.80
2023-03-02T12:11:02.329Z,4.63
2023-03-02T12:13:33.317Z,4.60
2023-03-02T12:16:00.366Z,4.45
2023-03-02T12:18:42.122Z,4.50
2023-03-02T12:21:27.016Z,4.40
2023-03-02T12:23:58.319Z,4.15
2023-03-02T12:26:32.455Z,4.18
2023-03-02T12:29:04.699Z,4.68
2023-03-02T12:31:43.494Z,4.30
2023-03-02T12:34:34.075Z,4.65
2023-03-02T12:37:07.327Z,4.57
2023-03-02T12:40:11.042Z,4.05
2023-03-02T12:42:59.576Z,3.90
2023-03-02T12:45:41.271Z,4.65
2023-03-02T12:48:23.864Z,4.05
2023-03-02T12:50:54.250Z,3.78
2023-03-02T12:53:21.287Z,3.70
2023-03-02T12:55:48.049Z,4.03
2023-03-02T12:58:21.846Z,3.60
2023-03-02T13:01:00.703Z,3.63
2023-03-02T13:03:29.990Z,3.90
2023-03-02T13:06:10.955Z,3.72
2023-03-02T13:08:37.697Z,3.78
2023-03-02T13:11:04.822Z,3.53
2023-03-02T13:13:43.661Z,3.58
2023-03-02T13:16:21.723Z,3.40
2023-03-02T13:18:49.919Z,3.50
2023-03-02T13:21:18.688Z,3.50
2023-03-02T13:23:48.746Z,3.15
2023-03-02T13:26:35.179Z,3.78
2023-03-02T13:29:20.616Z,3.60
2023-03-02T13:31:47.429Z,3.53
2023-03-02T13:34:23.140Z,3.38
2023-03-02T13:36:50.747Z,3.33
2023-03-02T13:39:35.600Z,3.40
2023-03-02T13:42:03.500Z,3.45
2023-03-02T13:44:35.126Z,3.45
2023-03-02T13:47:02.324Z,3.40
2023-03-02T13:49:31.195Z,3.20
2023-03-02T13:52:07.028Z,3.50
2023-03-02T13:54:36.718Z,3.60
2023-03-02T13:57:05.229Z,3.42
2023-03-02T13:59:36.283Z,3.63
2023-03-02T14:02:03.331Z,3.47
2023-03-02T14:04:30.286Z,3.10
2023-03-02T14:06:57.161Z,3.67
2023-03-02T14:09:23.882Z,3.13
2023-03-02T14:11:53.158Z,3.10
2023-03-02T14:14:23.228Z,3.40
2023-03-02T14:16:50.762Z,3.80
2023-03-02T14:19:18.500Z,3.20
2023-03-02T14:21:46.550Z,3.45
2023-03-02T14:24:13.455Z,2.95
2023-03-02T14:26:47.089Z,3.13
2023-03-02T14:29:26.794Z,3.28
2023-03-02T14:32:00.111Z,3.25
2023-03-02T14:34:26.975Z,3.13
2023-03-02T14:36:56.639Z,3.50
2023-03-02T14:39:27.497Z,3.40
2023-03-02T14:41:54.994Z,3.75
2023-03-02T14:44:22.940Z,3.22
2023-03-02T14:46:49.882Z,3.30
2023-03-02T14:49:16.783Z,3.05
2023-03-02T14:51:47.354Z,3.00
2023-03-02T14:54:18.266Z,3.35
2023-03-02T14:56:45.307Z,3.25
2023-03-02T14:59:15.420Z,3.55
2023-03-02T15:01:44.465Z,3.20
2023-03-02T15:04:11.269Z,3.30
2023-03-02T15:06:41.075Z,3.20
2023-03-02T15:09:08.396Z,3.20
2023-03-02T15:11:35.465Z,3.60
2023-03-02T15:14:02.524Z,3.45
2023-03-02T15:16:29.476Z,3.72
2023-03-02T15:18:58.742Z,3.40
2023-03-02T15:21:25.668Z,3.13
2023-03-02T15:23:52.669Z,3.50
2023-03-02T15:26:19.503Z,3.53
2023-03-02T15:28:50.082Z,4.00
2023-03-02T15:31:17.321Z,3.80
2023-03-02T15:33:47.339Z,3.72
2023-03-02T15:36:14.376Z,3.80
2023-03-02T15:38:41.531Z,3.70
2023-03-02T15:41:12.946Z,3.95
2023-03-02T15:43:39.947Z,4.00
2023-03-02T15:46:09.238Z,3.97
2023-03-02T15:48:37.087Z,4.10
2023-03-02T15:51:06.451Z,4.57
2023-03-02T15:53:37.747Z,4.13
2023-03-02T15:56:10.499Z,4.22
2023-03-02T15:58:37.495Z,4.10
2023-03-02T16:01:08.915Z,4.40
2023-03-02T16:03:36.072Z,4.57
2023-03-02T16:06:03.286Z,4.35
2023-03-02T16:08:29.987Z,4.88
2023-03-02T16:11:02.077Z,4.80
2023-03-02T16:13:32.494Z,4.35
2023-03-02T16:16:04.895Z,4.72
2023-03-02T16:18:32.460Z,4.53
2023-03-02T16:20:59.223Z,4.95
2023-03-02T16:23:26.334Z,4.57
2023-03-02T16:25:53.048Z,4.60
2023-03-02T16:28:20.866Z,4.80
2023-03-02T16:30:47.603Z,4.55
2023-03-02T16:33:17.606Z,4.75
2023-03-02T16:35:44.476Z,5.00
2023-03-02T16:38:11.275Z,5.30
2023-03-02T16:40:40.100Z,5.03
2023-03-02T16:43:09.114Z,5.18
2023-03-02T16:45:36.174Z,5.70
2023-03-02T16:48:03.917Z,5.43
2023-03-02T16:50:30.696Z,5.07
2023-03-02T16:52:58.994Z,5.18
2023-03-02T16:55:26.467Z,5.20
2023-03-02T16:57:53.468Z,5.20
2023-03-02T17:00:22.017Z,5.88
2023-03-02T17:02:49.429Z,5.78
2023-03-02T17:05:18.652Z,5.93
2023-03-02T17:07:45.682Z,5.38
2023-03-02T17:10:16.047Z,5.53
2023-03-02T17:12:42.847Z,5.45
2023-03-02T17:15:13.552Z,5.50
2023-03-02T17:17:41.049Z,5.47
2023-03-02T17:20:10.332Z,5.10
2023-03-02T17:22:37.065Z,5.43
2023-03-02T17:25:07.065Z,5.80
2023-03-02T17:27:33.739Z,6.18
2023-03-02T17:30:00.437Z,5.60
2023-03-02T17:32:27.234Z,5.60
2023-03-02T17:34:54.260Z,5.78
2023-03-02T17:37:21.137Z,5.78
2023-03-02T17:39:50.392Z,6.70
2023-03-02T17:42:17.072Z,5.95
2023-03-02T17:44:44.960Z,6.07
2023-03-02T17:47:14.788Z,6.35
2023-03-02T17:49:45.058Z,6.10
2023-03-02T17:52:13.205Z,6.30
2023-03-02T17:54:39.889Z,5.90
2023-03-02T17:57:06.715Z,6.25
2023-03-02T17:59:33.620Z,6.00
2023-03-02T18:02:00.587Z,6.72
2023-03-02T18:04:27.445Z,6.28
2023-03-02T18:06:54.387Z,6.15
2023-03-02T18:09:21.185Z,6.28
2023-03-02T18:11:48.087Z,6.78
2023-03-02T18:14:17.974Z,6.35
2023-03-02T18:16:45.151Z,6.65
2023-03-02T18:19:11.923Z,6.05
2023-03-02T18:21:40.064Z,6.93
2023-03-02T18:24:07.583Z,6.50
2023-03-02T18:26:34.381Z,5.90
2023-03-02T18:29:01.056Z,6.93
2023-03-02T18:31:28.427Z,6.50
2023-03-02T18:33:55.222Z,6.70
2023-03-02T18:36:21.941Z,6.90
2023-03-02T18:38:48.668Z,6.82
2023-03-02T18:41:15.430Z,6.70
2023-03-02T18:43:43.102Z,6.85
2023-03-02T18:46:22.179Z,6.75
2023-03-02T18:48:50.235Z,6.90
2023-03-02T18:51:21.689Z,6.93
2023-03-02T18:53:49.033Z,6.15
2023-03-02T18:56:15.861Z,6.65
2023-03-02T18:58:42.543Z,7.07
2023-03-02T19:01:09.370Z,6.45
2023-03-02T19:03:38.554Z,6.60
2023-03-02T19:06:07.349Z,6.53
2023-03-02T19:08:35.661Z,6.80
2023-03-02T19:11:03.233Z,6.85
2023-03-02T19:13:29.921Z,6.72
2023-03-02T19:15:57.107Z,7.13
2023-03-02T19:18:25.695Z,6.88
2023-03-02T19:20:54.331Z,7.00
2023-03-02T19:23:21.123Z,6.78
2023-03-02T19:25:47.919Z,7.03
2023-03-02T19:28:14.985Z,6.75
2023-03-02T19:30:41.689Z,6.68
2023-03-02T19:33:09.746Z,6.97
2023-03-02T19:35:37.774Z,6.88
2023-03-02T19:38:05.777Z,7.15
2023-03-02T19:40:32.601Z,7.05
2023-03-02T19:42:59.376Z,7.00
2023-03-02T19:45:29.387Z,6.85
2023-03-02T19:47:57.875Z,6.90
2023-03-02T19:50:25.687Z,7.32
2023-03-02T19:52:54.706Z,6.85
2023-03-02T19:55:24.124Z,7.35
2023-03-02T19:57:56.530Z,6.60
2023-03-02T20:00:24.152Z,6.88
2023-03-02T20:02:51.169Z,6.93
2023-03-02T20:05:17.989Z,6.53
2023-03-02T20:07:45.047Z,6.97
2023-03-02T20:10:24.039Z,6.43
2023-03-02T20:12:50.716Z,7.30
2023-03-02T20:15:17.645Z,6.75
2023-03-02T20:17:44.596Z,7.05
2023-03-02T20:20:12.233Z,7.25
2023-03-02T20:22:38.914Z,6.90
2023-03-02T20:25:06.357Z,6.85
2023-03-02T20:27:33.138Z,7.18
2023-03-02T20:29:59.958Z,7.35
2023-03-02T20:32:26.979Z,7.75
2023-03-02T20:34:53.730Z,6.82
2023-03-02T20:37:22.521Z,6.90
2023-03-02T20:39:49.518Z,7.00
2023-03-02T20:42:16.233Z,7.13
2023-03-02T20:44:43.077Z,7.03
2023-03-02T20:47:15.507Z,6.82
2023-03-02T20:49:42.567Z,7.18
2023-03-02T20:52:09.929Z,7.03
2023-03-02T20:54:40.631Z,6.78
2023-03-02T20:57:08.597Z,7.18
2023-03-02T20:59:37.416Z,7.32
2023-03-02T21:02:05.196Z,6.72
2023-03-02T21:04:33.195Z,6.90
2023-03-02T21:06:59.923Z,7.15
2023-03-02T21:09:26.663Z,7.47
2023-03-02T21:11:53.462Z,6.70
2023-03-02T21:14:20.382Z,7.28
2023-03-02T21:16:47.154Z,6.82
2023-03-02T21:19:17.220Z,6.85
2023-03-02T21:21:44.653Z,7.30
2023-03-02T21:24:16.736Z,7.38
2023-03-02T21:26:45.078Z,7.28
2023-03-02T21:29:12.971Z,7.22
2023-03-02T21:31:43.808Z,7.05
2023-03-02T21:34:15.905Z,7.25
2023-03-02T21:36:43.238Z,7.28
2023-03-02T21:39:11.771Z,7.53
2023-03-02T21:41:38.536Z,7.28
2023-03-02T21:44:05.783Z,7.65
2023-03-02T21:46:34.935Z,7.43
2023-03-02T21:49:01.688Z,7.50
2023-03-02T21:51:28.431Z,7.22
2023-03-02T21:53:55.108Z,7.22
2023-03-02T21:56:24.936Z,7.13
2023-03-02T21:58:54.949Z,7.28
2023-03-02T22:01:22.590Z,6.85
2023-03-02T22:03:50.139Z,7.25
2023-03-02T22:06:19.184Z,6.95
2023-03-02T22:08:45.895Z,6.90
2023-03-02T22:11:22.983Z,6.65
2023-03-02T22:13:56.236Z,7.32
2023-03-02T22:16:28.853Z,6.90
2023-03-02T22:18:58.474Z,6.35
2023-03-02T22:21:25.237Z,6.72
2023-03-02T22:23:56.705Z,6.90
2023-03-02T22:26:23.374Z,7.05
2023-03-02T22:28:50.666Z,7.30
2023-03-02T22:31:22.130Z,7.53
2023-03-02T22:33:49.821Z,6.90
2023-03-02T22:36:21.420Z,7.10
2023-03-02T22:38:48.376Z,6.57
2023-03-02T22:41:18.555Z,6.60
2023-03-02T22:43:46.235Z,7.05
2023-03-02T22:46:17.384Z,6.50
2023-03-02T22:48:46.833Z,7.25
2023-03-02T22:51:15.440Z,6.90
2023-03-02T22:53:52.795Z,7.10
2023-03-02T22:56:36.828Z,6.80
2023-03-02T22:59:19.523Z,6.53
2023-03-02T23:01:46.261Z,6.72
2023-03-02T23:04:22.492Z,6.57
2023-03-02T23:09:23.872Z,6.85
2023-03-02T23:11:57.187Z,6.95
2023-03-02T23:14:48.973Z,6.32
2023-03-02T23:17:23.976Z,5.88
2023-03-02T23:19:51.251Z,6.63
2023-03-02T23:22:18.252Z,6.60
2023-03-02T23:24:44.989Z,5.70
2023-03-02T23:27:11.896Z,5.95
2023-03-02T23:29:38.691Z,6.15
2023-03-02T23:32:05.691Z,6.47
2023-03-02T23:34:32.397Z,6.05
2023-03-02T23:36:59.822Z,6.40
2023-03-02T23:39:26.705Z,6.22
2023-03-02T23:41:53.459Z,6.30
2023-03-02T23:44:20.409Z,6.18
2023-03-02T23:46:47.888Z,6.18
2023-03-02T23:49:14.834Z,6.03
2023-03-02T23:51:41.485Z,6.60
2023-03-02T23:54:08.265Z,5.90
2023-03-02T23:56:35.136Z,6.53
2023-03-02T23:59:02.463Z,5.72
